Cienfuegos, Cienfuegos Jaime Gonzalez Airport (MUCF)

NameCienfuegos Jaime Gonzalez Airport
CityCienfuegos
CountryCuba
ICAOMUCF
IATACFG
Altitude31 m
CoordinatesGoogle Map
Live Air TrafficLiveATC.net
METARMUCF 131259Z AUTO 07006KT 20/17 Q1020
2018-12-13 12:59:00 Wind: East-Northeast (70°) 3.09 m/s - Visibility: 700 m - Temperature: 20 °C - Dew point: 17 °C - Humidity: 83% - Pressure: 1020 hPa

Sorry, no flights used the airport in this database.